To NAV CANADA Home Page Login to a new session Search on AWWS site Feedback and Comments Disclaimer Vers la page française équivalente Tips FAQ What's new on the site To the Forecasts and Observations / NOTAM section To "File a Flight Plan" website Publications and other links Update of the User's profile FIC Telephone Numbers My Weather Data Folder Route Weather Data Regional Weather Data Local Weather Data To the Forecasts and Observations / NOTAM section
Request Generated 07/25/2016 at 08:07:53 UTC . Weather information available at that time is displayed.

METAR/TAF

SUDBURY/ON    

METAR CYSB 250700Z 28003KT 6SM -SHRA BR OVC003 21/20 A2977 RMK SF8
SLP081 DENSITY ALT 2200FT=
METAR CYSB 250600Z 18010KT 1 1/2SM R22/5000VP6000FT/D -SHRA BR OVC002
21/20 A2976 RMK SF8 SLP078 DENSITY ALT 2200FT=
SPECI CYSB 250518Z 18008KT 6SM -SHRA BR OVC003 21/20 A2978 RMK SF8
SLP087 DENSITY ALT 2200FT=
METAR CYSB 250500Z 17008KT 7SM -SHRA BKN005 OVC012 21/20 A2979 RMK
SF7SC1 LTNG DIST N SLP089 DENSITY ALT 2200FT=

TAF CYSB 250738Z 2508/2520 18008KT 2SM -SHRA BR OVC003 TEMPO
2508/2511 P6SM NSW BKN005 OVC015
FM251100 25008KT P6SM FEW020 TEMPO 2511/2513 4SM BR BKN005 BKN015
FM251600 26012G22KT P6SM BKN040
RMK NXT FCST BY 251400Z=
Your time UTC time
Weather data provided by Environment Canada and NAV CANADA